createdAt,value
2018-09-11T00:03:09.906Z,1.07
2018-09-11T00:08:13.228Z,1.50
2018-09-11T00:13:16.555Z,1.30
2018-09-11T00:18:19.826Z,1.32
2018-09-11T00:23:23.115Z,1.45
2018-09-11T00:28:26.386Z,1.00
2018-09-11T00:33:29.815Z,1.30
2018-09-11T00:38:33.104Z,1.37
2018-09-11T00:43:36.390Z,1.25
2018-09-11T00:48:39.683Z,1.20
2018-09-11T00:53:42.958Z,1.40
2018-09-11T00:58:46.235Z,1.52
2018-09-11T01:03:49.766Z,1.50
2018-09-11T01:08:53.051Z,1.67
2018-09-11T01:13:56.338Z,1.55
2018-09-11T01:18:59.622Z,1.40
2018-09-11T01:24:02.902Z,1.47
2018-09-11T01:29:06.203Z,1.12
2018-09-11T01:34:09.497Z,1.27
2018-09-11T01:39:13.970Z,1.37
2018-09-11T01:44:17.251Z,1.35
2018-09-11T01:49:20.542Z,1.65
2018-09-11T01:54:23.823Z,1.35
2018-09-11T01:59:27.115Z,1.37
2018-09-11T02:04:30.398Z,1.57
2018-09-11T02:09:33.683Z,1.60
2018-09-11T02:14:36.975Z,1.65
2018-09-11T02:19:40.264Z,1.42
2018-09-11T02:24:43.563Z,1.77
2018-09-11T02:29:46.842Z,1.57
2018-09-11T02:34:50.118Z,1.40
2018-09-11T02:39:53.399Z,1.30
2018-09-11T02:44:56.688Z,1.32
2018-09-11T02:50:00.054Z,1.60
2018-09-11T02:55:03.534Z,1.60
2018-09-11T03:00:06.830Z,1.70
2018-09-11T03:05:10.150Z,1.60
2018-09-11T03:10:13.431Z,1.70
2018-09-11T03:15:16.711Z,1.43
2018-09-11T03:20:19.999Z,1.50
2018-09-11T03:25:23.295Z,1.67
2018-09-11T03:30:26.592Z,1.40
2018-09-11T03:35:29.908Z,1.60
2018-09-11T03:40:33.190Z,1.87
2018-09-11T03:45:36.472Z,1.90
2018-09-11T03:50:40.786Z,1.52
2018-09-11T03:55:44.275Z,1.55
2018-09-11T04:00:47.634Z,1.40
2018-09-11T04:05:50.922Z,1.37
2018-09-11T04:10:54.194Z,1.40
2018-09-11T04:15:57.480Z,1.80
2018-09-11T04:21:00.754Z,2.00
2018-09-11T04:26:04.242Z,1.82
2018-09-11T04:31:07.540Z,1.50
2018-09-11T04:36:10.872Z,1.52
2018-09-11T04:41:14.135Z,1.85
2018-09-11T04:46:17.427Z,2.08
2018-09-11T04:51:20.710Z,1.75
2018-09-11T04:56:23.979Z,1.70
2018-09-11T05:01:27.266Z,2.00
2018-09-11T05:06:30.543Z,1.92
2018-09-11T05:11:33.827Z,2.27
2018-09-11T05:16:37.106Z,2.37
2018-09-11T05:21:40.395Z,2.00
2018-09-11T05:26:43.674Z,1.90
2018-09-11T05:31:46.967Z,2.42
2018-09-11T05:36:50.339Z,2.45
2018-09-11T05:41:53.630Z,1.80
2018-09-11T05:46:56.902Z,1.95
2018-09-11T05:52:00.215Z,1.70
2018-09-11T05:57:03.510Z,1.72
2018-09-11T06:02:07.371Z,2.55
2018-09-11T06:07:10.657Z,2.52
2018-09-11T06:12:14.050Z,2.05
2018-09-11T06:17:17.595Z,2.08
2018-09-11T06:22:20.896Z,2.30
2018-09-11T06:27:24.179Z,2.00
2018-09-11T06:32:27.467Z,2.37
2018-09-11T06:37:30.746Z,2.20
2018-09-11T06:42:34.238Z,2.72
2018-09-11T06:47:37.614Z,2.17
2018-09-11T06:52:40.894Z,2.20
2018-09-11T06:57:44.175Z,2.42
2018-09-11T07:02:47.451Z,2.52
2018-09-11T07:07:50.747Z,2.22
2018-09-11T07:12:54.034Z,2.35
2018-09-11T07:17:57.318Z,2.40
2018-09-11T07:23:00.598Z,1.87
2018-09-11T07:28:03.879Z,2.30
2018-09-11T07:33:07.246Z,1.98
2018-09-11T07:38:10.550Z,1.95
2018-09-11T07:43:13.829Z,2.20
2018-09-11T07:48:17.110Z,2.10
2018-09-11T07:53:20.394Z,2.40
2018-09-11T07:58:23.682Z,2.35
2018-09-11T08:03:26.982Z,1.60
2018-09-11T08:08:30.272Z,1.80
2018-09-11T08:13:33.631Z,1.70
2018-09-11T08:18:36.918Z,1.87
2018-09-11T08:23:40.198Z,1.87
2018-09-11T08:28:43.477Z,1.92
2018-09-11T08:33:46.766Z,1.90
2018-09-11T08:38:50.051Z,1.50
2018-09-11T08:43:53.334Z,1.47
2018-09-11T08:48:56.614Z,1.55
2018-09-11T08:53:59.912Z,1.57
2018-09-11T08:59:03.194Z,1.65
2018-09-11T09:04:06.479Z,1.65
2018-09-11T09:09:11.175Z,1.60
2018-09-11T09:14:14.530Z,1.40
2018-09-11T09:19:17.810Z,1.75
2018-09-11T09:24:21.094Z,1.67
2018-09-11T09:29:24.384Z,1.65
2018-09-11T09:34:27.665Z,1.92
2018-09-11T09:39:30.955Z,2.10
2018-09-11T09:44:34.289Z,1.57
2018-09-11T09:49:37.554Z,1.70
2018-09-11T09:54:40.966Z,1.35
2018-09-11T09:59:44.326Z,1.80
2018-09-11T10:04:47.685Z,1.67
2018-09-11T10:09:51.419Z,1.65
2018-09-11T10:14:54.707Z,1.60
2018-09-11T10:19:57.989Z,1.60
2018-09-11T10:25:01.315Z,1.72
2018-09-11T10:30:04.951Z,1.77
2018-09-11T10:35:08.290Z,1.57
2018-09-11T10:40:11.866Z,1.70
2018-09-11T10:45:15.147Z,1.60
2018-09-11T10:50:18.462Z,1.70
2018-09-11T10:55:21.749Z,1.60
2018-09-11T11:00:25.080Z,1.80
2018-09-11T11:05:28.337Z,1.75
2018-09-11T11:10:31.762Z,1.35
2018-09-11T11:15:35.054Z,1.75
2018-09-11T11:20:38.542Z,1.17
2018-09-11T11:25:41.995Z,1.85
2018-09-11T11:30:45.275Z,1.30
2018-09-11T11:35:48.564Z,1.40
2018-09-11T11:40:52.066Z,1.42
2018-09-11T11:45:55.351Z,1.47
2018-09-11T11:50:58.694Z,1.55
2018-09-11T11:56:01.978Z,1.10
2018-09-11T12:01:05.462Z,1.22
2018-09-11T12:06:08.869Z,1.50
2018-09-11T12:11:12.149Z,1.47
2018-09-11T12:16:15.489Z,1.50
2018-09-11T12:21:18.734Z,1.30
2018-09-11T12:26:22.137Z,1.25
2018-09-11T12:31:25.442Z,1.57
2018-09-11T12:36:28.739Z,1.55
2018-09-11T12:41:32.031Z,1.32
2018-09-11T12:46:35.715Z,1.20
2018-09-11T12:51:38.638Z,1.55
2018-09-11T12:56:41.914Z,1.25
2018-09-11T13:01:45.195Z,1.25
2018-09-11T13:06:48.471Z,0.95
2018-09-11T13:11:51.934Z,1.32
2018-09-11T13:16:55.230Z,1.22
2018-09-11T13:21:58.529Z,0.88
2018-09-11T13:27:01.819Z,1.17
2018-09-11T13:32:05.174Z,1.40
2018-09-11T13:37:08.475Z,1.40
2018-09-11T13:42:11.777Z,1.05
2018-09-11T13:47:15.214Z,1.40
2018-09-11T13:57:45.557Z,1.20
2018-09-11T14:02:48.852Z,1.02
2018-09-11T14:07:52.152Z,1.82
2018-09-11T14:12:56.395Z,1.15
2018-09-11T14:18:00.007Z,1.22
2018-09-11T14:23:04.035Z,1.20
2018-09-11T14:28:08.120Z,0.82
2018-09-11T14:33:11.841Z,1.37
2018-09-11T14:38:15.207Z,1.20
2018-09-11T14:43:18.890Z,1.52
2018-09-11T14:48:22.332Z,1.00
2018-09-11T14:53:25.806Z,0.95
2018-09-11T14:58:29.106Z,0.88
2018-09-11T15:03:32.410Z,0.90
2018-09-11T15:08:35.717Z,1.10
2018-09-11T15:13:39.043Z,1.00
2018-09-11T15:18:42.353Z,1.20
2018-09-11T15:23:45.874Z,1.00
2018-09-11T15:28:49.226Z,0.90
2018-09-11T15:33:52.529Z,1.40
2018-09-11T15:38:55.894Z,1.00
2018-09-11T15:43:59.310Z,0.95
2018-09-11T15:49:02.599Z,0.90
2018-09-11T15:54:05.965Z,1.20
2018-09-11T15:59:09.262Z,0.93
2018-09-11T16:04:12.661Z,0.93
2018-09-11T16:09:15.966Z,0.95
2018-09-11T16:14:19.270Z,0.80
2018-09-11T16:19:22.706Z,1.40
2018-09-11T16:24:26.088Z,1.17
2018-09-11T16:29:29.613Z,1.12
2018-09-11T16:34:32.940Z,0.90
2018-09-11T16:39:36.445Z,1.10
2018-09-11T16:44:39.778Z,1.20
2018-09-11T16:49:43.187Z,1.12
2018-09-11T16:54:46.502Z,1.15
2018-09-11T16:59:50.045Z,1.05
2018-09-11T17:04:53.359Z,1.02
2018-09-11T17:09:56.692Z,1.17
2018-09-11T17:15:00.015Z,1.40
2018-09-11T17:20:03.472Z,1.07
2018-09-11T17:25:06.946Z,1.20
2018-09-11T17:30:10.578Z,1.10
2018-09-11T17:35:13.907Z,1.00
2018-09-11T17:40:17.342Z,1.25
2018-09-11T17:45:20.755Z,1.00
2018-09-11T17:50:24.136Z,0.88
2018-09-11T17:55:27.542Z,0.82
2018-09-11T18:00:31.068Z,1.12
2018-09-11T18:05:34.464Z,1.15
2018-09-11T18:10:37.794Z,1.40
2018-09-11T18:15:41.362Z,1.10
2018-09-11T18:20:44.774Z,1.02
2018-09-11T18:25:48.234Z,1.50
2018-09-11T18:30:51.542Z,1.05
2018-09-11T18:35:54.939Z,0.98
2018-09-11T18:40:58.398Z,1.10
2018-09-11T18:46:01.700Z,1.10
2018-09-11T18:51:05.021Z,1.15
2018-09-11T18:56:08.319Z,1.02
2018-09-11T19:01:11.612Z,1.00
2018-09-11T19:06:14.909Z,0.93
2018-09-11T19:11:18.313Z,1.10
2018-09-11T19:16:21.626Z,1.22
2018-09-11T19:21:25.050Z,1.40
2018-09-11T19:26:28.443Z,1.40
2018-09-11T19:31:31.772Z,1.65
2018-09-11T19:36:35.069Z,1.70
2018-09-11T19:41:38.544Z,1.27
2018-09-11T19:46:41.854Z,1.60
2018-09-11T19:51:45.166Z,1.50
2018-09-11T19:56:48.571Z,1.50
2018-09-11T20:01:51.871Z,1.75
2018-09-11T20:06:55.267Z,1.35
2018-09-11T20:11:58.718Z,1.37
2018-09-11T20:17:02.118Z,1.50
2018-09-11T20:22:08.166Z,1.60
2018-09-11T20:27:11.614Z,1.40
2018-09-11T20:32:15.139Z,1.70
2018-09-11T20:37:18.453Z,1.30
2018-09-11T20:42:21.819Z,1.87
2018-09-11T20:47:25.231Z,1.62
2018-09-11T20:52:28.775Z,1.40
2018-09-11T20:57:32.048Z,1.67
2018-09-11T21:02:35.467Z,1.95
2018-09-11T21:07:39.634Z,1.40
2018-09-11T21:12:42.981Z,1.32
2018-09-11T21:17:46.292Z,1.90
2018-09-11T21:22:49.646Z,1.50
2018-09-11T21:27:52.979Z,1.60
2018-09-11T21:32:56.293Z,1.50
2018-09-11T21:37:59.620Z,2.00
2018-09-11T21:43:03.157Z,1.62
2018-09-11T21:48:06.483Z,1.67
2018-09-11T21:53:11.191Z,1.85
2018-09-11T21:58:14.514Z,1.35
2018-09-11T22:03:17.825Z,1.80
2018-09-11T22:08:22.455Z,1.65
2018-09-11T22:13:25.998Z,1.60
2018-09-11T22:18:29.834Z,1.77
2018-09-11T22:23:33.867Z,1.50
2018-09-11T22:28:38.322Z,1.90
2018-09-11T22:33:42.227Z,1.67
2018-09-11T22:38:45.966Z,1.50
2018-09-11T22:43:50.221Z,1.15
2018-09-11T22:48:55.803Z,1.40
2018-09-11T22:53:59.646Z,1.62
2018-09-11T22:59:04.002Z,2.08
2018-09-11T23:04:07.291Z,1.60
2018-09-11T23:09:10.942Z,2.62
2018-09-11T23:14:14.222Z,2.50
2018-09-11T23:19:17.539Z,2.20
2018-09-11T23:24:20.818Z,2.27
2018-09-11T23:29:24.107Z,1.65
2018-09-11T23:34:27.386Z,1.75
2018-09-11T23:39:30.670Z,1.70
2018-09-11T23:44:33.959Z,2.00
2018-09-11T23:49:37.247Z,1.72
2018-09-11T23:54:40.525Z,1.57
2018-09-11T23:59:43.941Z,1.95
